createdAt,value
2023-02-09T00:00:07.932Z,-10.89
2023-02-09T00:02:34.641Z,-10.95
2023-02-09T00:05:01.288Z,-10.98
2023-02-09T00:07:27.956Z,-10.78
2023-02-09T00:09:54.584Z,-10.75
2023-02-09T00:12:39.968Z,-10.62
2023-02-09T00:15:07.308Z,-10.52
2023-02-09T00:17:38.151Z,-10.57
2023-02-09T00:20:06.429Z,-10.70
2023-02-09T00:22:34.040Z,-10.91
2023-02-09T00:25:00.748Z,-10.93
2023-02-09T00:27:27.457Z,-10.97
2023-02-09T00:29:54.162Z,-10.87
2023-02-09T00:32:20.868Z,-10.62
2023-02-09T00:34:48.271Z,-10.30
2023-02-09T00:37:15.035Z,-10.43
2023-02-09T00:39:41.692Z,-10.54
2023-02-09T00:42:08.456Z,-10.89
2023-02-09T00:44:36.872Z,-11.14
2023-02-09T00:47:04.461Z,-10.86
2023-02-09T00:49:31.970Z,-10.70
2023-02-09T00:51:58.670Z,-10.68
2023-02-09T00:54:25.639Z,-10.50
2023-02-09T00:56:52.369Z,-10.51
2023-02-09T00:59:29.084Z,-10.41
2023-02-09T01:01:55.732Z,-10.40
2023-02-09T01:04:22.414Z,-10.50
2023-02-09T01:06:49.149Z,-10.58
2023-02-09T01:09:15.820Z,-10.88
2023-02-09T01:11:42.458Z,-11.38
2023-02-09T01:14:10.499Z,-11.24
2023-02-09T01:16:37.248Z,-11.39
2023-02-09T01:19:04.301Z,-11.46
2023-02-09T01:21:31.486Z,-11.36
2023-02-09T01:23:58.446Z,-11.21
2023-02-09T01:26:25.128Z,-11.19
2023-02-09T01:28:53.658Z,-11.12
2023-02-09T01:31:24.470Z,-11.21
2023-02-09T01:33:52.988Z,-11.49
2023-02-09T01:36:20.644Z,-11.60
2023-02-09T01:38:47.595Z,-11.60
2023-02-09T01:41:15.182Z,-11.35
2023-02-09T01:43:50.312Z,-11.28
2023-02-09T01:46:17.039Z,-11.44
2023-02-09T01:48:43.846Z,-11.58
2023-02-09T01:51:11.685Z,-11.58
2023-02-09T01:53:40.543Z,-11.80
2023-02-09T01:56:16.930Z,-11.77
2023-02-09T01:58:46.005Z,-11.70
2023-02-09T02:01:13.892Z,-11.67
2023-02-09T02:03:40.834Z,-11.83
2023-02-09T02:06:12.781Z,-11.78
2023-02-09T02:09:03.906Z,-11.81
2023-02-09T02:11:32.952Z,-11.90
2023-02-09T02:13:59.935Z,-11.90
2023-02-09T02:16:26.637Z,-11.67
2023-02-09T02:18:56.236Z,-11.67
2023-02-09T02:21:52.025Z,-11.82
2023-02-09T02:24:37.927Z,-12.11
2023-02-09T02:27:09.283Z,-12.14
2023-02-09T02:29:48.207Z,-12.16
2023-02-09T02:32:45.108Z,-11.96
2023-02-09T02:35:35.098Z,-11.95
2023-02-09T02:38:07.975Z,-11.93
2023-02-09T02:40:49.711Z,-11.89
2023-02-09T02:43:19.437Z,-11.98
2023-02-09T02:46:07.026Z,-12.06
2023-02-09T02:48:47.829Z,-12.20
2023-02-09T02:51:27.864Z,-12.17
2023-02-09T02:54:00.582Z,-12.10
2023-02-09T02:56:33.554Z,-12.13
2023-02-09T02:59:04.241Z,-12.04
2023-02-09T03:01:37.179Z,-12.02
2023-02-09T03:04:06.454Z,-11.94
2023-02-09T03:06:34.208Z,-12.23
2023-02-09T03:09:01.532Z,-12.39
2023-02-09T03:11:33.757Z,-12.40
2023-02-09T03:14:28.968Z,-12.28
2023-02-09T03:17:07.509Z,-12.22
2023-02-09T03:20:14.487Z,-12.07
2023-02-09T03:22:46.602Z,-11.96
2023-02-09T03:25:17.781Z,-11.90
2023-02-09T03:27:53.954Z,-12.03
2023-02-09T03:30:23.156Z,-12.22
2023-02-09T03:32:50.912Z,-12.28
2023-02-09T03:35:20.169Z,-12.50
2023-02-09T03:37:47.099Z,-12.49
2023-02-09T03:40:13.959Z,-12.49
2023-02-09T03:42:40.736Z,-12.44
2023-02-09T03:45:08.196Z,-12.44
2023-02-09T03:47:35.288Z,-12.61
2023-02-09T03:50:02.390Z,-12.76
2023-02-09T03:52:31.038Z,-12.61
2023-02-09T03:54:57.948Z,-12.49
2023-02-09T03:57:24.747Z,-12.43
2023-02-09T03:59:51.469Z,-12.39
2023-02-09T04:02:18.165Z,-12.44
2023-02-09T04:04:44.988Z,-12.56
2023-02-09T04:07:12.273Z,-12.72
2023-02-09T04:09:39.034Z,-12.32
2023-02-09T04:12:06.140Z,-12.24
2023-02-09T04:14:32.962Z,-12.34
2023-02-09T04:16:59.600Z,-12.44
2023-02-09T04:19:26.572Z,-12.21
2023-02-09T04:21:53.310Z,-12.02
2023-02-09T04:24:21.448Z,-11.85
2023-02-09T04:26:48.120Z,-11.78
2023-02-09T04:29:14.847Z,-11.67
2023-02-09T04:31:41.565Z,-11.45
2023-02-09T04:34:08.668Z,-11.36
2023-02-09T04:36:35.370Z,-11.32
2023-02-09T04:39:02.218Z,-11.45
2023-02-09T04:41:28.956Z,-11.52
2023-02-09T04:43:55.578Z,-11.66
2023-02-09T04:46:22.330Z,-11.77
2023-02-09T04:48:49.018Z,-11.80
2023-02-09T04:51:15.813Z,-11.99
2023-02-09T04:53:42.560Z,-12.26
2023-02-09T04:56:15.047Z,-12.42
2023-02-09T04:59:01.142Z,-12.51
2023-02-09T05:01:29.689Z,-12.41
2023-02-09T05:03:56.466Z,-12.36
2023-02-09T05:06:23.216Z,-12.34
2023-02-09T05:08:49.968Z,-12.13
2023-02-09T05:11:16.743Z,-12.00
2023-02-09T05:13:47.296Z,-12.22
2023-02-09T05:16:16.194Z,-12.30
2023-02-09T05:18:43.242Z,-12.32
2023-02-09T05:21:10.148Z,-12.52
2023-02-09T05:23:36.976Z,-12.34
2023-02-09T05:26:03.760Z,-12.40
2023-02-09T05:28:30.524Z,-12.33
2023-02-09T05:30:57.349Z,-12.49
2023-02-09T05:33:25.651Z,-12.62
2023-02-09T05:35:54.015Z,-12.39
2023-02-09T05:38:20.694Z,-12.17
2023-02-09T05:40:47.831Z,-11.87
2023-02-09T05:43:14.823Z,-11.79
2023-02-09T05:45:41.639Z,-11.85
2023-02-09T05:48:08.382Z,-11.83
2023-02-09T05:50:36.085Z,-11.95
2023-02-09T05:53:02.862Z,-12.25
2023-02-09T05:55:29.801Z,-12.60
2023-02-09T05:57:56.532Z,-12.34
2023-02-09T06:00:25.205Z,-12.12
2023-02-09T06:02:52.088Z,-11.76
2023-02-09T06:05:21.071Z,-11.35
2023-02-09T06:07:48.984Z,-11.25
2023-02-09T06:10:17.185Z,-11.26
2023-02-09T06:12:43.934Z,-11.23
2023-02-09T06:15:11.146Z,-11.31
2023-02-09T06:17:37.890Z,-11.42
2023-02-09T06:20:05.000Z,-11.48
2023-02-09T06:22:31.910Z,-11.76
2023-02-09T06:24:58.704Z,-11.57
2023-02-09T06:27:25.309Z,-11.29
2023-02-09T06:29:52.049Z,-10.97
2023-02-09T06:32:19.419Z,-10.72
2023-02-09T06:34:46.167Z,-10.61
2023-02-09T06:37:12.979Z,-10.53
2023-02-09T06:39:39.663Z,-10.37
2023-02-09T06:42:06.355Z,-10.00
2023-02-09T06:44:33.037Z,-9.15
2023-02-09T06:47:00.374Z,-7.94
2023-02-09T06:49:27.068Z,-6.42
2023-02-09T06:51:53.956Z,-5.43
2023-02-09T06:54:25.822Z,-4.27
2023-02-09T06:56:52.674Z,-3.07
2023-02-09T06:59:19.588Z,-2.73
2023-02-09T07:01:46.672Z,-1.58
2023-02-09T07:04:13.386Z,-0.71
2023-02-09T07:06:40.094Z,-1.99
2023-02-09T07:09:06.886Z,-1.53
2023-02-09T07:11:33.574Z,-0.52
2023-02-09T07:14:00.247Z,-0.95
2023-02-09T07:16:27.162Z,-0.62
2023-02-09T07:18:53.915Z,-1.73
2023-02-09T07:21:21.707Z,-1.26
2023-02-09T07:23:48.631Z,-1.01
2023-02-09T07:26:18.024Z,-0.05
2023-02-09T07:28:45.258Z,-0.62
2023-02-09T07:31:14.387Z,1.43
2023-02-09T07:33:41.201Z,2.24
2023-02-09T07:36:10.723Z,1.81
2023-02-09T07:38:38.729Z,1.69
2023-02-09T07:41:07.429Z,1.40
2023-02-09T07:43:35.094Z,1.83
2023-02-09T07:46:07.274Z,1.41
2023-02-09T07:48:35.445Z,1.85
2023-02-09T07:51:02.480Z,1.70
2023-02-09T07:53:29.643Z,3.22
2023-02-09T07:55:56.541Z,4.72
2023-02-09T07:58:23.562Z,5.43
2023-02-09T08:00:51.356Z,3.89
2023-02-09T08:03:21.107Z,3.98
2023-02-09T08:05:56.770Z,3.57
2023-02-09T08:08:23.736Z,4.01
2023-02-09T08:10:50.992Z,5.21
2023-02-09T08:13:18.082Z,4.84
2023-02-09T08:15:58.727Z,5.61
2023-02-09T08:18:29.294Z,4.29
2023-02-09T08:20:56.023Z,3.55
2023-02-09T08:23:28.828Z,4.83
2023-02-09T08:25:56.775Z,4.25
2023-02-09T08:28:34.842Z,3.06
2023-02-09T08:31:05.384Z,3.31
2023-02-09T08:33:32.464Z,2.51
2023-02-09T08:35:59.124Z,2.65
2023-02-09T08:38:25.896Z,3.44
2023-02-09T08:40:52.616Z,4.54
2023-02-09T08:43:19.242Z,3.42
2023-02-09T08:45:46.443Z,3.39
2023-02-09T08:48:13.422Z,4.16
2023-02-09T08:50:40.140Z,3.30
2023-02-09T08:53:07.438Z,3.87
2023-02-09T08:55:37.446Z,3.81
2023-02-09T08:58:05.009Z,3.22
2023-02-09T09:00:32.760Z,5.29
2023-02-09T09:03:03.681Z,3.44
2023-02-09T09:05:32.073Z,2.80
2023-02-09T09:07:58.897Z,2.10
2023-02-09T09:10:25.560Z,2.96
2023-02-09T09:12:52.438Z,2.82
2023-02-09T09:15:19.204Z,3.07
2023-02-09T09:17:45.911Z,3.36
2023-02-09T09:20:12.727Z,3.35
2023-02-09T09:22:39.396Z,4.03
2023-02-09T09:25:06.555Z,4.63
2023-02-09T09:27:35.037Z,3.76
2023-02-09T09:30:03.923Z,5.00
2023-02-09T09:32:31.843Z,5.10
2023-02-09T09:34:59.669Z,3.78
2023-02-09T09:37:26.922Z,4.61
2023-02-09T09:39:53.862Z,3.80
2023-02-09T09:42:42.800Z,3.28
2023-02-09T09:45:21.154Z,3.91
2023-02-09T09:47:48.157Z,3.81
2023-02-09T09:50:20.085Z,3.84
2023-02-09T09:52:52.548Z,3.15
2023-02-09T09:55:30.773Z,3.14
2023-02-09T09:58:00.789Z,2.90
2023-02-09T10:00:39.754Z,3.29
2023-02-09T10:03:15.307Z,3.53
2023-02-09T10:05:43.990Z,3.68
2023-02-09T10:08:10.819Z,2.32
2023-02-09T10:10:55.107Z,2.59
2023-02-09T10:13:26.141Z,3.11
2023-02-09T10:15:56.371Z,2.69
2023-02-09T10:18:25.628Z,4.08
2023-02-09T10:21:04.667Z,4.47
2023-02-09T10:23:42.720Z,4.45
2023-02-09T10:26:09.327Z,4.70
2023-02-09T10:28:47.418Z,4.07
2023-02-09T10:31:31.626Z,3.19
2023-02-09T10:34:09.223Z,3.54
2023-02-09T10:36:47.703Z,3.57
2023-02-09T10:39:24.300Z,3.69
2023-02-09T10:41:54.424Z,4.03
2023-02-09T10:44:21.085Z,3.95
2023-02-09T10:46:48.401Z,3.40
2023-02-09T10:49:41.180Z,3.87
2023-02-09T10:52:10.897Z,4.17
2023-02-09T10:54:41.819Z,4.39
2023-02-09T10:57:28.446Z,3.88
2023-02-09T11:00:01.665Z,4.28
2023-02-09T11:02:42.052Z,4.27
2023-02-09T11:05:41.212Z,4.74
2023-02-09T11:08:21.615Z,5.17
2023-02-09T11:11:08.804Z,4.59
2023-02-09T11:13:35.532Z,4.96
2023-02-09T11:16:47.295Z,3.34
2023-02-09T11:19:19.777Z,2.72
2023-02-09T11:21:52.166Z,2.87
2023-02-09T11:24:40.300Z,2.56
2023-02-09T11:27:12.833Z,3.03
2023-02-09T11:29:46.938Z,3.79
2023-02-09T11:32:40.097Z,3.87
2023-02-09T11:35:12.537Z,4.50
2023-02-09T11:37:48.320Z,4.84
2023-02-09T11:40:39.791Z,5.11
2023-02-09T11:43:24.868Z,5.39
2023-02-09T11:45:55.638Z,4.97
2023-02-09T11:48:27.746Z,4.79
2023-02-09T11:51:20.207Z,4.25
2023-02-09T11:54:10.939Z,5.54
2023-02-09T11:56:42.044Z,4.92
2023-02-09T11:59:21.904Z,4.59
2023-02-09T12:02:33.003Z,4.01
2023-02-09T12:05:02.100Z,3.71
2023-02-09T12:07:40.904Z,3.72
2023-02-09T12:10:29.124Z,3.59
2023-02-09T12:13:07.406Z,4.37
2023-02-09T12:15:54.828Z,4.51
2023-02-09T12:18:24.388Z,3.81
2023-02-09T12:21:27.323Z,3.50
2023-02-09T12:23:53.941Z,3.62
2023-02-09T12:26:37.302Z,2.89
2023-02-09T12:29:38.106Z,3.50
2023-02-09T12:32:04.842Z,2.58
2023-02-09T12:34:52.329Z,3.12
2023-02-09T12:37:27.317Z,3.19
2023-02-09T12:40:03.451Z,4.06
2023-02-09T12:42:53.270Z,4.57
2023-02-09T12:45:33.950Z,3.84
2023-02-09T12:48:09.846Z,3.97
2023-02-09T12:50:42.590Z,4.26
2023-02-09T12:53:24.592Z,4.24
2023-02-09T12:56:04.428Z,3.92
2023-02-09T12:58:51.308Z,4.12
2023-02-09T13:01:18.309Z,2.59
2023-02-09T13:04:03.315Z,2.78
2023-02-09T13:06:56.715Z,2.78
2023-02-09T13:09:34.999Z,2.81
2023-02-09T13:12:01.617Z,2.55
2023-02-09T13:14:29.728Z,2.54
2023-02-09T13:17:08.436Z,2.17
2023-02-09T13:19:56.992Z,2.29
2023-02-09T13:22:35.627Z,2.46
2023-02-09T13:25:27.117Z,2.05
2023-02-09T13:27:53.928Z,2.15
2023-02-09T13:30:32.406Z,2.08
2023-02-09T13:33:20.987Z,1.74
2023-02-09T13:36:23.102Z,1.89
2023-02-09T13:38:51.413Z,1.93
2023-02-09T13:41:31.989Z,1.70
2023-02-09T13:43:58.783Z,1.63
2023-02-09T13:46:34.538Z,1.61
2023-02-09T13:49:17.910Z,1.59
2023-02-09T13:51:44.794Z,1.23
2023-02-09T13:54:18.315Z,1.45
2023-02-09T13:56:45.123Z,1.27
2023-02-09T13:59:17.558Z,1.09
2023-02-09T14:01:46.521Z,0.92
2023-02-09T14:04:26.123Z,1.26
2023-02-09T14:07:01.661Z,1.27
2023-02-09T14:09:38.554Z,1.29
2023-02-09T14:12:15.269Z,1.18
2023-02-09T14:15:06.033Z,0.67
2023-02-09T14:17:38.877Z,0.76
2023-02-09T14:20:20.316Z,0.81
2023-02-09T14:22:56.804Z,0.87
2023-02-09T14:25:32.508Z,1.06
2023-02-09T14:27:59.294Z,0.72
2023-02-09T14:30:32.792Z,0.83
2023-02-09T14:33:03.397Z,0.64
2023-02-09T14:35:41.399Z,0.54
2023-02-09T14:38:38.065Z,0.17
2023-02-09T14:41:34.599Z,0.53
2023-02-09T14:44:08.437Z,0.40
2023-02-09T14:46:52.525Z,0.47
2023-02-09T14:49:20.283Z,0.22
2023-02-09T14:51:49.270Z,-0.22
2023-02-09T14:54:27.037Z,-0.46
2023-02-09T14:56:57.338Z,-1.23
2023-02-09T14:59:24.633Z,-1.30
2023-02-09T15:01:53.411Z,-1.13
2023-02-09T15:04:20.695Z,-1.15
2023-02-09T15:06:52.936Z,-1.38
2023-02-09T15:09:26.771Z,-1.70
2023-02-09T15:12:05.495Z,-1.81
2023-02-09T15:14:42.478Z,-1.95
2023-02-09T15:17:22.078Z,-2.03
2023-02-09T15:19:48.705Z,-2.11
2023-02-09T15:22:16.983Z,-2.14
2023-02-09T15:24:46.021Z,-2.17
2023-02-09T15:27:33.552Z,-2.29
2023-02-09T15:30:03.800Z,-2.30
2023-02-09T15:32:31.139Z,-2.51
2023-02-09T15:34:59.099Z,-2.57
2023-02-09T15:37:28.506Z,-2.65
2023-02-09T15:39:59.312Z,-2.82
2023-02-09T15:42:44.480Z,-2.81
2023-02-09T15:45:38.970Z,-2.89
2023-02-09T15:48:06.521Z,-2.97
2023-02-09T15:50:39.192Z,-2.93
2023-02-09T15:53:09.497Z,-2.84
2023-02-09T15:55:37.188Z,-2.80
2023-02-09T15:58:11.838Z,-3.12
2023-02-09T16:00:38.419Z,-3.31
2023-02-09T16:03:15.362Z,-3.30
2023-02-09T16:05:42.468Z,-3.42
2023-02-09T16:08:30.523Z,-3.41
2023-02-09T16:10:57.292Z,-3.52
2023-02-09T16:13:23.990Z,-3.52
2023-02-09T16:15:50.898Z,-3.80
2023-02-09T16:18:17.562Z,-3.88
2023-02-09T16:20:47.542Z,-3.88
2023-02-09T16:23:20.951Z,-3.89
2023-02-09T16:25:52.369Z,-3.95
2023-02-09T16:28:21.525Z,-4.16
2023-02-09T16:30:56.649Z,-4.23
2023-02-09T16:33:25.592Z,-4.14
2023-02-09T16:35:56.140Z,-4.26
2023-02-09T16:38:24.523Z,-4.14
2023-02-09T16:40:52.218Z,-4.23
2023-02-09T16:43:19.299Z,-4.24
2023-02-09T16:46:01.100Z,-4.31
2023-02-09T16:48:32.324Z,-4.38
2023-02-09T16:50:59.452Z,-4.59
2023-02-09T16:53:33.368Z,-4.70
2023-02-09T16:56:05.833Z,-4.79
2023-02-09T16:58:32.824Z,-4.75
2023-02-09T17:00:59.617Z,-4.95
2023-02-09T17:03:40.629Z,-5.19
2023-02-09T17:06:15.255Z,-5.22
2023-02-09T17:08:41.827Z,-5.40
2023-02-09T17:11:23.133Z,-5.28
2023-02-09T17:13:50.638Z,-5.15
2023-02-09T17:16:27.627Z,-4.99
2023-02-09T17:18:59.417Z,-5.13
2023-02-09T17:21:29.810Z,-5.34
2023-02-09T17:23:59.024Z,-5.22
2023-02-09T17:26:26.315Z,-4.99
2023-02-09T17:28:53.117Z,-4.90
2023-02-09T17:31:36.030Z,-4.95
2023-02-09T17:34:09.224Z,-5.18
2023-02-09T17:36:38.449Z,-5.48
2023-02-09T17:39:11.892Z,-5.68
2023-02-09T17:41:46.582Z,-5.87
2023-02-09T17:44:39.149Z,-6.08
2023-02-09T17:47:15.398Z,-6.41
2023-02-09T17:49:42.270Z,-6.33
2023-02-09T17:52:16.971Z,-6.07
2023-02-09T17:54:43.801Z,-6.09
2023-02-09T17:57:15.386Z,-6.14
2023-02-09T17:59:42.345Z,-6.09
2023-02-09T18:02:17.697Z,-6.30
2023-02-09T18:04:44.532Z,-6.36
2023-02-09T18:07:20.337Z,-6.46
2023-02-09T18:09:47.308Z,-6.43
2023-02-09T18:12:20.548Z,-6.25
2023-02-09T18:14:47.531Z,-6.34
2023-02-09T18:17:14.646Z,-6.23
2023-02-09T18:19:41.365Z,-6.61
2023-02-09T18:22:13.934Z,-6.57
2023-02-09T18:24:41.885Z,-6.43
2023-02-09T18:27:13.597Z,-6.44
2023-02-09T18:29:40.334Z,-6.93
2023-02-09T18:32:07.184Z,-6.98
2023-02-09T18:34:35.771Z,-7.09
2023-02-09T18:37:02.523Z,-7.38
2023-02-09T18:39:30.832Z,-7.19
2023-02-09T18:41:57.698Z,-7.37
2023-02-09T18:44:28.998Z,-7.15
2023-02-09T18:46:57.551Z,-7.17
2023-02-09T18:49:24.214Z,-7.12
2023-02-09T18:51:52.229Z,-7.27
2023-02-09T18:54:19.150Z,-7.34
2023-02-09T18:56:45.890Z,-7.52
2023-02-09T18:59:12.769Z,-7.34
2023-02-09T19:01:40.639Z,-7.34
2023-02-09T19:04:07.894Z,-7.27
2023-02-09T19:06:35.599Z,-7.37
2023-02-09T19:09:03.033Z,-7.47
2023-02-09T19:11:29.794Z,-7.85
2023-02-09T19:14:15.131Z,-8.11
2023-02-09T19:16:41.940Z,-7.69
2023-02-09T19:19:09.645Z,-7.86
2023-02-09T19:21:36.396Z,-7.96
2023-02-09T19:24:03.166Z,-7.90
2023-02-09T19:26:29.964Z,-7.89
2023-02-09T19:28:57.283Z,-7.87
2023-02-09T19:31:24.805Z,-8.08
2023-02-09T19:33:55.198Z,-8.00
2023-02-09T19:36:22.905Z,-7.82
2023-02-09T19:38:49.725Z,-7.69
2023-02-09T19:41:17.025Z,-7.68
2023-02-09T19:43:43.758Z,-7.76
2023-02-09T19:46:10.560Z,-7.88
2023-02-09T19:48:40.178Z,-8.08
2023-02-09T19:51:07.700Z,-8.09
2023-02-09T19:53:35.170Z,-8.35
2023-02-09T19:56:02.436Z,-8.54
2023-02-09T19:58:29.689Z,-8.34
2023-02-09T20:00:56.654Z,-8.36
2023-02-09T20:03:24.572Z,-8.38
2023-02-09T20:05:51.418Z,-8.52
2023-02-09T20:08:19.795Z,-8.51
2023-02-09T20:10:46.970Z,-8.56
2023-02-09T20:13:14.522Z,-8.55
2023-02-09T20:15:43.419Z,-8.51
2023-02-09T20:18:12.061Z,-8.68
2023-02-09T20:20:41.406Z,-8.66
2023-02-09T20:23:08.613Z,-8.73
2023-02-09T20:25:35.388Z,-9.02
2023-02-09T20:28:02.203Z,-8.88
2023-02-09T20:30:29.026Z,-8.87
2023-02-09T20:32:55.716Z,-8.94
2023-02-09T20:35:22.722Z,-9.20
2023-02-09T20:37:49.549Z,-9.24
2023-02-09T20:40:17.441Z,-9.09
2023-02-09T20:43:02.607Z,-8.99
2023-02-09T20:45:47.782Z,-9.12
2023-02-09T20:48:14.439Z,-9.16
2023-02-09T20:50:41.180Z,-9.19
2023-02-09T20:53:07.889Z,-9.32
2023-02-09T20:55:34.585Z,-9.22
2023-02-09T20:58:01.390Z,-9.27
2023-02-09T21:00:28.278Z,-9.12
2023-02-09T21:02:55.083Z,-9.17
2023-02-09T21:05:21.828Z,-9.19
2023-02-09T21:07:50.450Z,-9.24
2023-02-09T21:10:17.184Z,-9.31
2023-02-09T21:12:43.947Z,-9.51
2023-02-09T21:15:10.646Z,-9.77
2023-02-09T21:17:39.808Z,-9.65
2023-02-09T21:20:06.722Z,-9.65
2023-02-09T21:22:33.357Z,-9.69
2023-02-09T21:24:59.980Z,-9.60
2023-02-09T21:27:26.627Z,-9.71
2023-02-09T21:29:53.387Z,-9.75
2023-02-09T21:32:20.114Z,-9.81
2023-02-09T21:34:46.945Z,-9.79
2023-02-09T21:37:14.149Z,-9.81
2023-02-09T21:39:41.945Z,-9.80
2023-02-09T21:42:28.749Z,-9.79
2023-02-09T21:44:55.976Z,-9.83
2023-02-09T21:47:31.126Z,-9.84
2023-02-09T21:49:59.303Z,-10.36
2023-02-09T21:52:26.898Z,-10.29
2023-02-09T21:54:54.041Z,-10.27
2023-02-09T21:57:21.323Z,-10.25
2023-02-09T21:59:47.958Z,-10.03
2023-02-09T22:02:17.299Z,-10.08
2023-02-09T22:04:45.316Z,-10.15
2023-02-09T22:07:12.690Z,-10.37
2023-02-09T22:09:39.823Z,-10.41
2023-02-09T22:12:07.307Z,-10.46
2023-02-09T22:14:34.403Z,-10.53
2023-02-09T22:17:01.154Z,-10.65
2023-02-09T22:19:27.852Z,-10.43
2023-02-09T22:21:57.683Z,-10.47
2023-02-09T22:24:24.852Z,-10.65
2023-02-09T22:26:51.600Z,-10.74
2023-02-09T22:29:18.427Z,-10.58
2023-02-09T22:31:45.970Z,-10.59
2023-02-09T22:34:12.644Z,-10.57
2023-02-09T22:36:39.991Z,-10.64
2023-02-09T22:39:07.448Z,-10.72
2023-02-09T22:41:34.648Z,-10.77
2023-02-09T22:44:02.512Z,-10.82
2023-02-09T22:46:34.460Z,-10.82
2023-02-09T22:49:05.672Z,-10.94
2023-02-09T22:51:33.764Z,-10.89
2023-02-09T22:54:01.524Z,-11.01
2023-02-09T22:56:29.321Z,-10.90
2023-02-09T22:58:57.635Z,-10.96
2023-02-09T23:01:24.592Z,-11.04
2023-02-09T23:03:51.768Z,-11.10
2023-02-09T23:06:24.031Z,-11.21
2023-02-09T23:08:59.733Z,-11.03
2023-02-09T23:11:27.953Z,-11.02
2023-02-09T23:14:08.600Z,-11.06
2023-02-09T23:16:37.380Z,-11.16
2023-02-09T23:19:06.719Z,-11.22
2023-02-09T23:21:36.811Z,-11.38
2023-02-09T23:24:04.477Z,-11.36
2023-02-09T23:26:31.151Z,-11.61
2023-02-09T23:29:01.692Z,-11.49
2023-02-09T23:31:28.881Z,-11.33
2023-02-09T23:33:55.653Z,-11.35
2023-02-09T23:36:27.998Z,-11.24
2023-02-09T23:38:56.748Z,-11.30
2023-02-09T23:41:24.763Z,-11.36
2023-02-09T23:43:52.415Z,-11.42
2023-02-09T23:46:21.949Z,-11.36
2023-02-09T23:48:49.621Z,-11.35
2023-02-09T23:51:21.240Z,-11.48
2023-02-09T23:53:48.260Z,-11.57
2023-02-09T23:56:16.376Z,-11.54
2023-02-09T23:58:46.398Z,-11.57
